KGDV/GDV METAR and TAF weather

Enter ICAO airport designator
Station Type Date Time Source
KGDV METAR 2022/12/04 12:56 UTC NOAA

KGDV 041256Z AUTO 24007KT 10SM CLR M10/M13 A2996 RMK AO2 SLP192 T11001133 FZRANO


Station Type Date Time Source
KGDV Decoded METAR 2022/12/04 12:56 UTC NOAA

Glendive, Dawson Community Airport, MT, United States (KGDV) 47-08N 104-48W
Dec 04, 2022 - 07:56 AM EST / 2022.12.04 1256 UTC
Wind: from the WSW (240 degrees) at 8 MPH (7 KT):0
Visibility: 10 mile(s):0
Sky conditions: clear
Temperature: 14.0 F (-10.0 C)
Windchill: 3 F (-16 C):1
Dew Point: 8.1 F (-13.3 C)
Relative Humidity: 76%
Pressure (altimeter): 29.96 in. Hg (1014 hPa)
ob: KGDV 041256Z AUTO 24007KT 10SM CLR M10/M13 A2996 RMK AO2 SLP192 T11001133 FZRANO
cycle: 13

Station Type Date Time Source
KGDV TAF 2022/12/04 12:40 UTC NOAA

TAF KGDV 041138Z 0412/0512 23012G20KT P6SM SKC
FM042000 26015G25KT P6SM FEW110
FM050300 32012G20KT P6SM BKN120

Example: see airport list